createdAt,value
2018-12-02T00:00:16.012Z,14.20
2018-12-02T00:02:43.534Z,14.27
2018-12-02T00:05:11.037Z,14.07
2018-12-02T00:07:38.797Z,14.50
2018-12-02T00:10:09.809Z,14.33
2018-12-02T00:12:37.557Z,13.37
2018-12-02T00:15:11.332Z,13.70
2018-12-02T00:17:38.954Z,13.33
2018-12-02T00:20:09.265Z,13.23
2018-12-02T00:22:36.998Z,12.80
2018-12-02T00:25:05.855Z,13.40
2018-12-02T00:27:33.408Z,13.00
2018-12-02T00:30:00.911Z,12.70
2018-12-02T00:32:29.449Z,12.27
2018-12-02T00:34:56.978Z,12.50
2018-12-02T00:37:24.495Z,13.40
2018-12-02T00:39:52.116Z,13.27
2018-12-02T00:42:19.650Z,12.77
2018-12-02T00:44:50.852Z,12.97
2018-12-02T00:47:18.412Z,13.03
2018-12-02T00:49:46.056Z,12.50
2018-12-02T00:52:13.841Z,12.40
2018-12-02T00:54:41.405Z,12.10
2018-12-02T00:57:08.938Z,12.77
2018-12-02T00:59:36.647Z,12.60
2018-12-02T01:02:04.630Z,13.13
2018-12-02T01:04:32.321Z,12.37
2018-12-02T01:06:59.876Z,13.03
2018-12-02T01:09:27.573Z,12.30
2018-12-02T01:11:55.084Z,12.37
2018-12-02T01:14:22.618Z,12.77
2018-12-02T01:16:50.144Z,13.37
2018-12-02T01:19:17.691Z,13.37
2018-12-02T01:21:45.285Z,13.90
2018-12-02T01:24:12.823Z,12.77
2018-12-02T01:26:40.311Z,13.30
2018-12-02T01:29:07.806Z,12.87
2018-12-02T01:31:35.317Z,12.73
2018-12-02T01:34:02.837Z,12.80
2018-12-02T01:36:30.401Z,13.10
2018-12-02T01:38:57.950Z,12.53
2018-12-02T01:41:25.610Z,12.93
2018-12-02T01:43:53.129Z,12.73
2018-12-02T01:46:20.617Z,13.17
2018-12-02T01:48:48.165Z,13.40
2018-12-02T01:51:16.644Z,12.90
2018-12-02T01:53:44.146Z,12.93
2018-12-02T01:56:11.708Z,13.33
2018-12-02T01:58:39.191Z,13.70
2018-12-02T02:01:06.740Z,13.03
2018-12-02T02:03:34.863Z,13.00
2018-12-02T02:06:02.437Z,13.93
2018-12-02T02:08:29.963Z,13.00
2018-12-02T02:10:57.517Z,12.63
2018-12-02T02:13:25.019Z,13.17
2018-12-02T02:15:52.496Z,13.20
2018-12-02T02:18:20.012Z,13.20
2018-12-02T02:20:47.521Z,13.17
2018-12-02T02:23:15.027Z,11.23
2018-12-02T02:25:42.531Z,11.90
2018-12-02T02:28:10.160Z,12.47
2018-12-02T02:30:37.702Z,13.13
2018-12-02T02:33:06.528Z,12.67
2018-12-02T02:35:34.385Z,12.57
2018-12-02T02:38:01.878Z,11.90
2018-12-02T02:40:30.219Z,12.17
2018-12-02T02:42:58.352Z,12.67
2018-12-02T02:45:25.920Z,11.80
2018-12-02T02:47:53.416Z,11.73
2018-12-02T02:50:21.984Z,12.00
2018-12-02T02:52:54.845Z,11.83
2018-12-02T02:55:22.339Z,11.07
2018-12-02T02:57:49.826Z,11.60
2018-12-02T03:00:20.527Z,12.50
2018-12-02T03:02:48.057Z,12.37
2018-12-02T03:05:16.267Z,12.73
2018-12-02T03:07:43.901Z,12.60
2018-12-02T03:10:14.444Z,11.93
2018-12-02T03:12:42.584Z,13.37
2018-12-02T03:15:11.259Z,11.83
2018-12-02T03:17:39.045Z,13.17
2018-12-02T03:20:12.205Z,13.33
2018-12-02T03:22:42.561Z,13.20
2018-12-02T03:25:13.246Z,13.33
2018-12-02T03:27:41.215Z,13.87
2018-12-02T03:30:18.160Z,13.60
2018-12-02T03:32:47.158Z,13.70
2018-12-02T03:35:19.945Z,13.23
2018-12-02T03:38:01.416Z,13.20
2018-12-02T03:43:14.610Z,12.70
2018-12-02T03:45:42.087Z,13.23
2018-12-02T03:48:09.558Z,11.57
2018-12-02T03:50:37.066Z,12.57
2018-12-02T03:53:04.933Z,13.33
2018-12-02T03:55:32.425Z,12.80
2018-12-02T03:58:00.399Z,11.70
2018-12-02T04:03:28.093Z,12.63
2018-12-02T04:08:33.094Z,12.60
2018-12-02T04:11:11.185Z,11.50
2018-12-02T04:13:39.060Z,11.93
2018-12-02T04:21:41.544Z,12.27
2018-12-02T04:24:09.152Z,12.10
2018-12-02T04:26:36.680Z,11.57
2018-12-02T04:29:04.822Z,12.07
2018-12-02T04:31:32.357Z,11.13
2018-12-02T04:33:59.905Z,11.60
2018-12-02T04:36:29.474Z,10.30
2018-12-02T04:38:56.967Z,10.77
2018-12-02T04:41:24.544Z,10.47
2018-12-02T04:43:53.898Z,10.43
2018-12-02T04:51:48.606Z,10.20
2018-12-02T04:54:24.360Z,10.67
2018-12-02T04:56:51.878Z,10.07
2018-12-02T04:59:19.387Z,9.97
2018-12-02T05:01:46.876Z,10.40
2018-12-02T05:04:14.360Z,8.93
2018-12-02T05:06:41.914Z,9.93
2018-12-02T05:09:09.396Z,10.00
2018-12-02T05:11:36.940Z,10.03
2018-12-02T05:14:04.504Z,9.93
2018-12-02T05:16:32.020Z,10.67
2018-12-02T05:18:59.502Z,10.27
2018-12-02T05:21:27.014Z,10.67
2018-12-02T05:23:54.607Z,10.40
2018-12-02T05:26:22.171Z,11.07
2018-12-02T05:28:49.710Z,10.83
2018-12-02T05:31:17.250Z,10.53
2018-12-02T05:33:44.763Z,11.10
2018-12-02T05:36:12.458Z,11.03
2018-12-02T05:38:39.970Z,10.37
2018-12-02T05:41:07.449Z,10.40
2018-12-02T05:43:34.953Z,11.00
2018-12-02T05:46:02.431Z,10.43
2018-12-02T05:48:29.914Z,11.27
2018-12-02T05:50:57.511Z,10.63
2018-12-02T05:53:24.998Z,10.87
2018-12-02T05:55:52.614Z,11.10
2018-12-02T05:58:20.140Z,10.67
2018-12-02T06:00:47.672Z,10.60
2018-12-02T06:03:15.220Z,10.43
2018-12-02T06:05:42.726Z,9.87
2018-12-02T06:08:10.259Z,10.20
2018-12-02T06:10:37.741Z,9.70
2018-12-02T06:13:05.874Z,9.57
2018-12-02T06:15:33.420Z,9.30
2018-12-02T06:18:00.935Z,9.00
2018-12-02T06:20:28.472Z,8.90
2018-12-02T06:22:57.038Z,8.83
2018-12-02T06:25:24.591Z,8.40
2018-12-02T06:27:52.238Z,8.77
2018-12-02T06:30:23.634Z,8.57
2018-12-02T06:32:56.282Z,8.20
2018-12-02T06:35:23.810Z,7.83
2018-12-02T06:37:52.413Z,8.07
2018-12-02T06:40:22.136Z,7.40
2018-12-02T06:42:50.048Z,7.40
2018-12-02T06:45:17.634Z,7.47
2018-12-02T06:47:45.262Z,6.93
2018-12-02T06:50:17.032Z,6.47
2018-12-02T06:52:44.617Z,6.57
2018-12-02T06:55:53.229Z,6.50
2018-12-02T07:00:48.875Z,6.30
2018-12-02T07:03:27.916Z,6.13
2018-12-02T07:05:55.386Z,6.47
2018-12-02T07:08:22.885Z,5.93
2018-12-02T07:10:50.395Z,6.03
2018-12-02T07:13:18.161Z,6.53
2018-12-02T07:15:45.681Z,6.53
2018-12-02T07:18:20.874Z,6.60
2018-12-02T07:20:52.829Z,6.37
2018-12-02T07:23:23.784Z,5.93
2018-12-02T07:25:55.951Z,6.00
2018-12-02T07:28:23.556Z,6.27
2018-12-02T07:30:51.090Z,6.37
2018-12-02T07:33:18.710Z,6.73
2018-12-02T07:35:46.209Z,6.80
2018-12-02T07:38:25.297Z,6.43
2018-12-02T07:40:54.719Z,6.83
2018-12-02T07:43:22.303Z,5.87
2018-12-02T07:45:50.023Z,6.63
2018-12-02T07:48:17.559Z,6.23
2018-12-02T07:50:45.065Z,6.40
2018-12-02T07:53:12.593Z,6.17
2018-12-02T07:55:40.682Z,5.83
2018-12-02T07:58:14.092Z,5.50
2018-12-02T08:00:41.670Z,5.70
2018-12-02T08:03:09.310Z,4.90
2018-12-02T08:05:36.795Z,5.50
2018-12-02T08:08:04.683Z,4.93
2018-12-02T08:10:32.155Z,5.13
2018-12-02T08:12:59.671Z,4.77
2018-12-02T08:15:27.160Z,5.10
2018-12-02T08:17:54.632Z,4.70
2018-12-02T08:20:22.244Z,4.80
2018-12-02T08:22:51.583Z,4.93
2018-12-02T08:25:18.257Z,4.70
2018-12-02T08:27:46.143Z,4.20
2018-12-02T08:30:16.711Z,4.80
2018-12-02T08:32:44.488Z,5.00
2018-12-02T08:35:13.151Z,4.53
2018-12-02T08:37:41.219Z,4.10
2018-12-02T08:40:10.089Z,4.63
2018-12-02T08:42:37.681Z,3.63
2018-12-02T08:45:07.773Z,3.80
2018-12-02T08:47:35.483Z,3.77
2018-12-02T08:50:03.848Z,3.40
2018-12-02T08:52:31.440Z,3.37
2018-12-02T08:54:59.004Z,3.43
2018-12-02T08:57:26.521Z,3.60
2018-12-02T08:59:55.627Z,3.73
2018-12-02T09:02:23.137Z,3.70
2018-12-02T09:04:51.321Z,3.50
2018-12-02T09:07:18.860Z,3.50
2018-12-02T09:09:46.427Z,3.53
2018-12-02T09:12:13.933Z,4.23
2018-12-02T09:14:41.457Z,4.00
2018-12-02T09:17:09.059Z,3.60
2018-12-02T09:19:37.224Z,3.40
2018-12-02T09:22:05.166Z,3.93
2018-12-02T09:24:32.676Z,4.00
2018-12-02T09:27:00.311Z,3.80
2018-12-02T09:29:27.826Z,3.90
2018-12-02T09:31:55.431Z,3.50
2018-12-02T09:34:23.142Z,3.37
2018-12-02T09:36:50.763Z,3.63
2018-12-02T09:39:18.554Z,3.50
2018-12-02T09:41:45.852Z,3.67
2018-12-02T09:44:13.418Z,3.43
2018-12-02T09:46:40.894Z,3.50
2018-12-02T09:49:08.373Z,3.60
2018-12-02T09:51:35.852Z,3.47
2018-12-02T09:54:03.386Z,3.57
2018-12-02T09:56:30.887Z,3.40
2018-12-02T09:58:58.395Z,3.07
2018-12-02T10:01:25.955Z,2.90
2018-12-02T10:03:53.525Z,3.13
2018-12-02T10:06:21.016Z,3.27
2018-12-02T10:08:49.087Z,3.20
2018-12-02T10:11:17.031Z,3.10
2018-12-02T10:13:44.552Z,3.00
2018-12-02T10:16:15.652Z,3.33
2018-12-02T10:18:39.811Z,3.17
2018-12-02T10:21:07.491Z,2.97
2018-12-02T10:23:36.730Z,3.03
2018-12-02T10:26:08.172Z,3.10
2018-12-02T10:28:40.245Z,3.10
2018-12-02T10:31:08.328Z,3.10
2018-12-02T10:33:36.626Z,3.10
2018-12-02T10:36:05.463Z,3.00
2018-12-02T10:38:33.115Z,3.20
2018-12-02T10:41:00.736Z,3.20
2018-12-02T10:43:28.719Z,3.00
2018-12-02T10:46:09.096Z,3.80
2018-12-02T10:48:36.746Z,3.30
2018-12-02T10:51:05.245Z,3.17
2018-12-02T10:53:33.443Z,2.60
2018-12-02T10:56:01.111Z,2.80
2018-12-02T10:58:31.087Z,3.03
2018-12-02T11:01:06.259Z,2.83
2018-12-02T11:03:33.826Z,2.77
2018-12-02T11:06:01.573Z,2.60
2018-12-02T11:08:29.137Z,3.00
2018-12-02T11:10:56.732Z,2.93
2018-12-02T11:13:24.235Z,3.00
2018-12-02T11:15:51.702Z,3.23
2018-12-02T11:18:19.216Z,2.90
2018-12-02T11:20:46.773Z,2.70
2018-12-02T11:23:14.252Z,2.50
2018-12-02T11:25:41.796Z,2.73
2018-12-02T11:28:09.739Z,2.80
2018-12-02T11:30:37.718Z,3.20
2018-12-02T11:33:05.565Z,2.70
2018-12-02T11:35:33.183Z,2.87
2018-12-02T11:38:00.997Z,2.67
2018-12-02T11:40:30.592Z,2.60
2018-12-02T11:42:58.159Z,3.77
2018-12-02T11:45:25.681Z,2.90
2018-12-02T11:47:58.128Z,4.30
2018-12-02T11:50:26.062Z,2.30
2018-12-02T11:52:53.760Z,2.33
2018-12-02T11:55:22.110Z,2.30
2018-12-02T11:57:50.191Z,2.20
2018-12-02T12:00:32.996Z,2.10
2018-12-02T12:03:01.126Z,2.30
2018-12-02T12:05:28.982Z,1.97
2018-12-02T12:07:57.008Z,2.37
2018-12-02T12:10:26.621Z,2.47
2018-12-02T12:12:56.407Z,2.70
2018-12-02T12:15:25.619Z,2.43
2018-12-02T12:17:53.613Z,2.23
2018-12-02T12:20:38.829Z,2.20
2018-12-02T12:23:07.849Z,2.37
2018-12-02T12:25:35.371Z,2.10
2018-12-02T12:28:02.863Z,2.40
2018-12-02T12:30:31.373Z,2.40
2018-12-02T12:32:59.449Z,2.60
2018-12-02T12:35:27.016Z,2.20
2018-12-02T12:37:54.838Z,2.50
2018-12-02T12:40:30.213Z,2.30
2018-12-02T12:43:25.650Z,2.37
2018-12-02T12:45:53.275Z,2.00
2018-12-02T12:48:20.813Z,2.33
2018-12-02T12:50:48.309Z,2.03
2018-12-02T12:53:15.953Z,2.10
2018-12-02T12:55:43.769Z,2.20
2018-12-02T12:58:12.277Z,2.13
2018-12-02T13:00:39.823Z,1.80
2018-12-02T13:03:07.917Z,1.60
2018-12-02T13:05:35.475Z,1.80
2018-12-02T13:08:03.066Z,1.60
2018-12-02T13:10:30.537Z,1.30
2018-12-02T13:12:58.072Z,1.17
2018-12-02T13:15:25.658Z,1.00
2018-12-02T13:17:56.272Z,1.40
2018-12-02T13:20:25.053Z,1.30
2018-12-02T13:22:52.604Z,1.10
2018-12-02T13:25:20.116Z,1.00
2018-12-02T13:27:47.908Z,1.20
2018-12-02T13:30:17.471Z,1.00
2018-12-02T13:32:50.101Z,0.80
2018-12-02T13:35:17.630Z,1.20
2018-12-02T13:37:45.175Z,1.10
2018-12-02T13:40:14.464Z,1.20
2018-12-02T13:42:43.082Z,0.77
2018-12-02T13:45:16.099Z,0.87
2018-12-02T13:47:43.624Z,0.90
2018-12-02T13:50:14.378Z,1.10
2018-12-02T13:52:41.873Z,1.20
2018-12-02T13:55:10.821Z,1.00
2018-12-02T13:57:38.485Z,0.90
2018-12-02T14:00:09.524Z,1.00
2018-12-02T14:02:37.002Z,1.07
2018-12-02T14:05:05.619Z,1.00
2018-12-02T14:07:33.209Z,1.40
2018-12-02T14:10:00.648Z,1.30
2018-12-02T14:12:28.660Z,1.40
2018-12-02T14:14:57.246Z,1.17
2018-12-02T14:17:26.057Z,1.50
2018-12-02T14:19:53.725Z,1.37
2018-12-02T14:22:21.205Z,1.50
2018-12-02T14:24:48.947Z,1.63
2018-12-02T14:27:16.485Z,1.90
2018-12-02T14:29:47.010Z,1.63
2018-12-02T14:32:15.802Z,1.37
2018-12-02T14:34:43.306Z,1.80
2018-12-02T14:37:10.929Z,1.40
2018-12-02T14:39:38.714Z,1.40
2018-12-02T14:42:06.782Z,1.37
2018-12-02T14:44:34.560Z,1.50
2018-12-02T14:47:02.403Z,1.50
2018-12-02T14:49:30.093Z,1.90
2018-12-02T14:51:58.080Z,1.40
2018-12-02T14:54:27.371Z,1.30
2018-12-02T14:56:55.662Z,2.30
2018-12-02T14:59:23.550Z,1.70
2018-12-02T15:01:51.390Z,1.50
2018-12-02T15:04:19.012Z,1.60
2018-12-02T15:06:46.833Z,1.50
2018-12-02T15:09:14.720Z,1.47
2018-12-02T15:11:43.790Z,1.70
2018-12-02T15:14:11.832Z,1.40
2018-12-02T15:16:39.801Z,1.60
2018-12-02T15:19:08.886Z,1.50
2018-12-02T15:21:36.743Z,2.30
2018-12-02T15:24:04.750Z,1.33
2018-12-02T15:26:32.598Z,1.10
2018-12-02T15:29:00.403Z,1.60
2018-12-02T15:31:28.376Z,1.63
2018-12-02T15:33:56.990Z,1.50
2018-12-02T15:36:25.016Z,1.67
2018-12-02T15:38:54.397Z,1.40
2018-12-02T15:41:24.784Z,2.00
2018-12-02T15:43:55.191Z,1.90
2018-12-02T15:46:23.449Z,1.30
2018-12-02T15:48:51.745Z,1.37
2018-12-02T15:51:20.078Z,1.50
2018-12-02T15:53:49.827Z,1.80
2018-12-02T15:56:18.690Z,2.20
2018-12-02T15:58:47.838Z,1.77
2018-12-02T16:01:15.635Z,1.50
2018-12-02T16:03:43.623Z,1.70
2018-12-02T16:06:11.571Z,1.13
2018-12-02T16:08:39.443Z,1.10
2018-12-02T16:11:12.732Z,1.50
2018-12-02T16:13:41.353Z,1.93
2018-12-02T16:16:09.283Z,2.30
2018-12-02T16:18:37.988Z,1.87
2018-12-02T16:21:06.391Z,2.07
2018-12-02T16:23:34.350Z,1.90
2018-12-02T16:26:04.200Z,1.60
2018-12-02T16:28:33.114Z,2.00
2018-12-02T16:31:01.411Z,3.27
2018-12-02T16:36:07.820Z,1.07
2018-12-02T16:38:35.913Z,1.20
2018-12-02T16:41:04.546Z,1.40
2018-12-02T16:43:32.892Z,1.47
2018-12-02T16:46:01.020Z,1.43
2018-12-02T16:48:29.158Z,1.10
2018-12-02T16:50:57.297Z,1.27
2018-12-02T16:53:27.903Z,1.30
2018-12-02T16:56:01.308Z,1.13
2018-12-02T16:58:44.696Z,1.17
2018-12-02T17:03:57.928Z,0.90
2018-12-02T17:06:25.954Z,1.10
2018-12-02T17:08:54.885Z,0.90
2018-12-02T17:11:23.086Z,1.33
2018-12-02T17:13:51.314Z,1.20
2018-12-02T17:29:24.189Z,1.53
2018-12-02T17:31:55.143Z,1.40
2018-12-02T17:34:23.182Z,1.40
2018-12-02T17:36:51.757Z,1.60
2018-12-02T17:39:22.186Z,1.10
2018-12-02T17:41:58.061Z,2.80
2018-12-02T17:44:26.072Z,1.00
2018-12-02T17:46:54.007Z,1.00
2018-12-02T17:49:21.877Z,1.30
2018-12-02T17:51:49.796Z,1.10
2018-12-02T17:54:18.108Z,1.17
2018-12-02T17:56:46.009Z,1.37
2018-12-02T17:59:13.874Z,1.10
2018-12-02T18:01:42.102Z,1.07
2018-12-02T18:04:10.147Z,1.40
2018-12-02T18:06:38.088Z,1.30
2018-12-02T18:09:09.609Z,2.00
2018-12-02T18:11:37.522Z,1.97
2018-12-02T18:14:06.257Z,1.93
2018-12-02T18:16:34.670Z,1.93
2018-12-02T18:19:02.655Z,1.80
2018-12-02T18:21:30.643Z,2.00
2018-12-02T18:23:58.563Z,2.50
2018-12-02T18:26:26.410Z,2.17
2018-12-02T18:28:54.347Z,2.13
2018-12-02T18:31:22.266Z,2.00
2018-12-02T18:33:50.209Z,3.00
2018-12-02T18:36:21.839Z,2.10
2018-12-02T18:38:50.207Z,1.20
2018-12-02T18:41:23.015Z,1.50
2018-12-02T18:43:51.033Z,1.60
2018-12-02T18:46:19.954Z,1.50
2018-12-02T18:48:49.285Z,1.40
2018-12-02T18:51:17.403Z,1.50
2018-12-02T18:53:45.521Z,2.30
2018-12-02T18:56:16.542Z,1.70
2018-12-02T18:58:41.504Z,1.97
2018-12-02T19:01:09.455Z,2.07
2018-12-02T19:03:37.362Z,2.00
2018-12-02T19:06:06.179Z,1.93
2018-12-02T19:08:34.097Z,2.10
2018-12-02T19:11:02.062Z,2.50
2018-12-02T19:13:30.100Z,2.10
2018-12-02T19:15:58.084Z,2.30
2018-12-02T19:18:26.114Z,2.17
2018-12-02T19:20:59.950Z,2.10
2018-12-02T19:23:30.392Z,2.40
2018-12-02T19:25:58.917Z,2.63
2018-12-02T19:28:28.557Z,2.33
2018-12-02T19:30:56.594Z,2.60
2018-12-02T19:33:25.612Z,3.27
2018-12-02T19:35:57.040Z,2.80
2018-12-02T19:38:25.433Z,2.60
2018-12-02T19:40:53.680Z,2.73
2018-12-02T19:43:22.191Z,3.90
2018-12-02T19:45:51.569Z,4.00
2018-12-02T19:48:19.640Z,2.80
2018-12-02T19:50:48.780Z,2.90
2018-12-02T19:53:17.053Z,2.70
2018-12-02T19:55:45.389Z,2.80
2018-12-02T19:58:14.424Z,2.83
2018-12-02T20:00:44.676Z,2.50
2018-12-02T20:03:13.984Z,2.40
2018-12-02T20:08:30.858Z,2.23
2018-12-02T20:10:58.479Z,2.20
2018-12-02T20:13:26.342Z,2.20
2018-12-02T20:15:59.537Z,2.50
2018-12-02T20:18:27.235Z,2.60
2018-12-02T20:20:59.692Z,2.43
2018-12-02T20:23:33.050Z,2.37
2018-12-02T20:26:02.060Z,2.20
2018-12-02T20:28:40.864Z,2.00
2018-12-02T20:31:11.665Z,1.80
2018-12-02T20:33:39.820Z,2.10
2018-12-02T20:39:17.295Z,1.57
2018-12-02T20:41:45.686Z,1.70
2018-12-02T20:44:14.869Z,1.90
2018-12-02T20:46:43.142Z,1.63
2018-12-02T20:49:12.199Z,1.80
2018-12-02T20:51:41.069Z,1.73
2018-12-02T20:54:10.096Z,1.50
2018-12-02T20:56:38.264Z,1.77
2018-12-02T20:59:07.452Z,1.57
2018-12-02T21:01:35.424Z,2.20
2018-12-02T21:06:42.864Z,2.57
2018-12-02T21:09:10.523Z,2.57
2018-12-02T21:11:42.209Z,2.50
2018-12-02T21:14:09.978Z,2.60
2018-12-02T21:16:37.746Z,2.30
2018-12-02T21:19:06.296Z,2.30
2018-12-02T21:21:37.121Z,2.30
2018-12-02T21:24:01.801Z,2.37
2018-12-02T21:26:29.512Z,2.20
2018-12-02T21:28:57.135Z,2.50
2018-12-02T21:31:24.895Z,2.27
2018-12-02T21:33:52.653Z,2.27
2018-12-02T21:36:20.681Z,2.07
2018-12-02T21:38:48.668Z,2.70
2018-12-02T21:41:16.530Z,2.67
2018-12-02T21:43:44.232Z,2.40
2018-12-02T21:46:12.098Z,2.50
2018-12-02T21:48:39.744Z,2.40
2018-12-02T21:51:07.467Z,2.73
2018-12-02T21:53:35.120Z,2.40
2018-12-02T21:56:02.761Z,3.07
2018-12-02T21:58:30.556Z,2.77
2018-12-02T22:01:03.981Z,3.13
2018-12-02T22:03:31.851Z,2.90
2018-12-02T22:05:59.510Z,3.10
2018-12-02T22:08:27.137Z,3.00
2018-12-02T22:10:54.775Z,3.20
2018-12-02T22:13:22.476Z,3.57
2018-12-02T22:15:50.099Z,3.40
2018-12-02T22:18:17.756Z,3.10
2018-12-02T22:20:45.353Z,3.10
2018-12-02T22:23:13.210Z,2.70
2018-12-02T22:25:40.902Z,2.80
2018-12-02T22:28:09.241Z,3.20
2018-12-02T22:30:37.031Z,2.63
2018-12-02T22:33:05.071Z,2.60
2018-12-02T22:35:33.629Z,2.40
2018-12-02T22:38:01.402Z,2.13
2018-12-02T22:40:29.192Z,1.70
2018-12-02T22:42:56.817Z,1.97
2018-12-02T22:45:25.602Z,2.07
2018-12-02T22:47:53.188Z,2.30
2018-12-02T22:50:21.792Z,1.97
2018-12-02T22:52:50.563Z,1.70
2018-12-02T22:55:19.000Z,1.70
2018-12-02T22:57:47.593Z,1.53
2018-12-02T23:00:29.192Z,1.67
2018-12-02T23:03:09.287Z,1.40
2018-12-02T23:05:37.058Z,1.20
2018-12-02T23:08:05.402Z,1.23
2018-12-02T23:10:33.200Z,1.50
2018-12-02T23:13:01.507Z,2.00
2018-12-02T23:15:29.884Z,1.47
2018-12-02T23:17:57.608Z,1.10
2018-12-02T23:20:26.331Z,1.20
2018-12-02T23:22:55.422Z,1.17
2018-12-02T23:25:23.501Z,0.80
2018-12-02T23:27:51.629Z,1.10
2018-12-02T23:30:23.013Z,0.80
2018-12-02T23:32:50.751Z,0.77
2018-12-02T23:35:19.137Z,1.30
2018-12-02T23:37:46.747Z,1.20
2018-12-02T23:40:19.883Z,1.00
2018-12-02T23:42:47.649Z,0.80
2018-12-02T23:45:16.263Z,0.80
2018-12-02T23:47:44.005Z,0.77
2018-12-02T23:50:16.918Z,0.90
2018-12-02T23:52:45.378Z,0.73
2018-12-02T23:55:14.778Z,0.90
2018-12-02T23:57:42.451Z,0.77
